createdAt,value
2022-11-23T00:02:01.727Z,12.10
2022-11-23T00:04:30.459Z,16.93
2022-11-23T00:06:58.719Z,13.27
2022-11-23T00:09:28.897Z,15.63
2022-11-23T00:11:58.043Z,17.43
2022-11-23T00:14:26.046Z,14.43
2022-11-23T00:19:42.020Z,13.27
2022-11-23T00:22:10.827Z,13.93
2022-11-23T00:24:41.888Z,11.17
2022-11-23T00:27:12.722Z,9.60
2022-11-23T00:29:41.129Z,14.40
2022-11-23T00:32:09.624Z,13.87
2022-11-23T00:34:40.563Z,10.47
2022-11-23T00:37:09.360Z,11.70
2022-11-23T00:39:39.879Z,11.10
2022-11-23T00:42:09.524Z,13.13
2022-11-23T00:44:38.945Z,10.50
2022-11-23T00:47:09.925Z,16.07
2022-11-23T00:49:57.981Z,15.20
2022-11-23T00:52:29.485Z,20.87
2022-11-23T00:54:58.480Z,17.33
2022-11-23T00:57:29.135Z,18.27
2022-11-23T01:00:00.275Z,20.70
2022-11-23T01:02:29.505Z,14.13
2022-11-23T01:05:18.313Z,18.73
2022-11-23T01:08:07.719Z,16.70
2022-11-23T01:10:36.955Z,17.83
2022-11-23T01:13:09.216Z,19.17
2022-11-23T01:15:37.504Z,19.70
2022-11-23T01:18:06.178Z,23.03
2022-11-23T01:20:41.155Z,18.20
2022-11-23T01:23:09.366Z,17.03
2022-11-23T01:25:41.599Z,17.10
2022-11-23T01:28:13.688Z,15.50
2022-11-23T01:31:04.675Z,16.10
2022-11-23T01:33:32.843Z,19.97
2022-11-23T01:36:02.273Z,19.90
2022-11-23T01:38:30.628Z,20.93
2022-11-23T01:40:59.301Z,18.67
2022-11-23T01:43:28.878Z,13.83
2022-11-23T01:45:58.835Z,13.57
2022-11-23T01:48:49.678Z,14.43
2022-11-23T01:51:22.191Z,19.47
2022-11-23T01:54:11.314Z,13.07
2022-11-23T01:56:43.031Z,16.10
2022-11-23T01:59:37.214Z,16.00
2022-11-23T02:02:11.646Z,14.70
2022-11-23T02:04:44.576Z,13.30
2022-11-23T02:07:13.047Z,9.97
2022-11-23T02:09:41.789Z,11.73
2022-11-23T02:12:12.882Z,8.23
2022-11-23T02:14:55.051Z,9.77
2022-11-23T02:17:45.064Z,15.50
2022-11-23T02:20:19.558Z,13.33
2022-11-23T02:22:56.933Z,11.10
2022-11-23T02:25:38.622Z,13.90
2022-11-23T02:28:09.183Z,14.50
2022-11-23T02:30:38.963Z,14.73
2022-11-23T02:33:07.707Z,12.77
2022-11-23T02:35:36.063Z,16.93
2022-11-23T02:38:15.745Z,15.33
2022-11-23T02:40:45.900Z,15.50
2022-11-23T02:43:19.008Z,11.70
2022-11-23T02:45:53.961Z,13.43
2022-11-23T02:48:22.219Z,18.30
2022-11-23T02:50:50.278Z,14.63
2022-11-23T02:53:19.512Z,15.23
2022-11-23T02:55:48.101Z,12.47
2022-11-23T02:58:18.175Z,14.83
2022-11-23T03:01:07.886Z,14.30
2022-11-23T03:03:37.724Z,14.03
2022-11-23T03:06:06.058Z,13.17
2022-11-23T03:08:36.523Z,14.53
2022-11-23T03:11:08.857Z,12.60
2022-11-23T03:13:39.113Z,11.70
2022-11-23T03:16:08.225Z,9.57
2022-11-23T03:18:36.573Z,10.43
2022-11-23T03:21:05.270Z,9.20
2022-11-23T03:23:35.254Z,12.77
2022-11-23T03:26:09.759Z,9.90
2022-11-23T03:28:45.012Z,9.63
2022-11-23T03:31:19.280Z,10.23
2022-11-23T03:33:47.509Z,8.50
2022-11-23T03:36:15.543Z,14.47
2022-11-23T03:38:43.579Z,12.80
2022-11-23T03:41:11.481Z,10.30
2022-11-23T03:43:41.712Z,9.10
2022-11-23T03:46:13.600Z,14.70
2022-11-23T03:48:41.595Z,12.73
2022-11-23T03:51:31.693Z,11.03
2022-11-23T03:54:06.935Z,12.80
2022-11-23T03:56:36.115Z,12.40
2022-11-23T03:59:08.106Z,12.93
2022-11-23T04:01:36.888Z,9.23
2022-11-23T04:04:06.116Z,9.67
2022-11-23T04:06:34.359Z,12.07
2022-11-23T04:09:07.922Z,12.97
2022-11-23T04:11:36.426Z,13.80
2022-11-23T04:14:07.715Z,7.90
2022-11-23T04:16:36.306Z,14.60
2022-11-23T04:19:24.992Z,13.23
2022-11-23T04:21:56.094Z,11.97
2022-11-23T04:24:27.581Z,11.20
2022-11-23T04:26:55.658Z,8.57
2022-11-23T04:29:25.150Z,10.63
2022-11-23T04:31:53.369Z,11.60
2022-11-23T04:34:21.724Z,7.37
2022-11-23T04:36:49.820Z,13.03
2022-11-23T04:39:17.772Z,11.57
2022-11-23T04:41:45.711Z,10.30
2022-11-23T04:44:13.671Z,8.20
2022-11-23T04:46:43.010Z,12.27
2022-11-23T04:49:11.210Z,12.37
2022-11-23T04:51:39.097Z,12.53
2022-11-23T04:54:07.104Z,10.23
2022-11-23T04:56:35.301Z,9.83
2022-11-23T04:59:03.415Z,9.13
2022-11-23T05:01:31.384Z,11.23
2022-11-23T05:04:00.728Z,8.83
2022-11-23T05:06:28.715Z,11.47
2022-11-23T05:08:56.647Z,11.40
2022-11-23T05:11:24.584Z,12.07
2022-11-23T05:13:52.623Z,13.57
2022-11-23T05:16:20.572Z,10.93
2022-11-23T05:18:48.471Z,12.00
2022-11-23T05:21:17.810Z,15.80
2022-11-23T05:23:45.806Z,10.67
2022-11-23T05:26:13.774Z,8.97
2022-11-23T05:28:42.109Z,14.53
2022-11-23T05:31:10.562Z,10.73
2022-11-23T05:33:38.739Z,12.83
2022-11-23T05:36:07.396Z,12.33
2022-11-23T05:38:36.849Z,12.57
2022-11-23T05:41:04.842Z,11.97
2022-11-23T05:43:32.766Z,14.13
2022-11-23T05:46:01.384Z,9.97
2022-11-23T05:48:29.321Z,12.13
2022-11-23T05:51:03.665Z,12.10
2022-11-23T05:53:33.407Z,11.07
2022-11-23T05:56:03.236Z,14.57
2022-11-23T05:58:31.198Z,12.23
2022-11-23T06:01:00.080Z,13.50
2022-11-23T06:03:28.456Z,13.60
2022-11-23T06:05:56.380Z,11.77
2022-11-23T06:08:24.408Z,10.37
2022-11-23T06:10:52.548Z,12.97
2022-11-23T06:13:21.858Z,9.90
2022-11-23T06:15:49.828Z,9.97
2022-11-23T06:18:17.898Z,10.20
2022-11-23T06:20:45.883Z,12.87
2022-11-23T06:23:13.851Z,12.03
2022-11-23T06:25:41.856Z,9.67
2022-11-23T06:28:09.767Z,14.27
2022-11-23T06:30:39.192Z,12.90
2022-11-23T06:33:07.540Z,13.83
2022-11-23T06:35:35.647Z,16.60
2022-11-23T06:38:03.690Z,14.40
2022-11-23T06:40:31.861Z,11.67
2022-11-23T06:43:00.883Z,14.77
2022-11-23T06:45:28.886Z,15.83
2022-11-23T06:47:58.404Z,12.83
2022-11-23T06:50:26.320Z,12.40
2022-11-23T06:52:57.582Z,9.87
2022-11-23T06:55:25.821Z,19.17
2022-11-23T06:57:53.944Z,11.43
2022-11-23T07:00:22.046Z,9.80
2022-11-23T07:02:53.336Z,23.20
2022-11-23T07:05:23.381Z,17.30
2022-11-23T07:07:51.684Z,16.20
2022-11-23T07:10:20.403Z,20.63
2022-11-23T07:12:48.315Z,17.77
2022-11-23T07:15:16.455Z,10.63
2022-11-23T07:17:45.318Z,14.07
2022-11-23T07:20:14.554Z,12.07
2022-11-23T07:22:43.967Z,10.80
2022-11-23T07:25:16.508Z,15.40
2022-11-23T07:27:44.753Z,16.90
2022-11-23T07:30:13.489Z,14.77
2022-11-23T07:32:41.435Z,13.20
2022-11-23T07:35:09.998Z,13.00
2022-11-23T07:37:37.961Z,13.80
2022-11-23T07:40:09.051Z,17.57
2022-11-23T07:42:43.212Z,11.07
2022-11-23T07:45:13.671Z,11.60
2022-11-23T07:47:41.998Z,14.07
2022-11-23T07:50:12.283Z,15.40
2022-11-23T07:52:41.375Z,11.87
2022-11-23T07:55:11.775Z,11.90
2022-11-23T07:57:39.979Z,15.60
2022-11-23T08:00:09.630Z,15.80
2022-11-23T08:02:37.679Z,11.27
2022-11-23T08:05:11.294Z,11.20
2022-11-23T08:07:42.357Z,14.83
2022-11-23T08:10:12.540Z,12.67
2022-11-23T08:12:40.749Z,14.60
2022-11-23T08:15:09.552Z,12.37
2022-11-23T08:17:38.833Z,11.90
2022-11-23T08:20:07.761Z,15.50
2022-11-23T08:22:35.807Z,9.33
2022-11-23T08:25:03.829Z,13.70
2022-11-23T08:27:33.062Z,16.10
2022-11-23T08:30:01.170Z,13.60
2022-11-23T08:32:29.128Z,12.30
2022-11-23T08:34:57.379Z,13.87
2022-11-23T08:37:25.591Z,12.90
2022-11-23T08:39:53.529Z,8.30
2022-11-23T08:42:21.596Z,15.07
2022-11-23T08:44:51.089Z,12.33
2022-11-23T08:47:19.673Z,11.77
2022-11-23T08:49:47.696Z,11.97
2022-11-23T08:52:16.084Z,18.37
2022-11-23T08:54:44.015Z,17.27
2022-11-23T08:57:12.000Z,15.80
2022-11-23T08:59:40.306Z,11.87
2022-11-23T09:02:11.349Z,11.80
2022-11-23T09:04:40.640Z,11.67
2022-11-23T09:07:08.716Z,9.17
2022-11-23T09:09:36.782Z,9.97
2022-11-23T09:12:05.244Z,13.77
2022-11-23T09:14:33.885Z,7.57
2022-11-23T09:17:05.440Z,14.27
2022-11-23T09:19:34.710Z,17.17
2022-11-23T09:22:02.753Z,13.57
2022-11-23T09:24:30.941Z,13.67
2022-11-23T09:26:59.369Z,14.00
2022-11-23T09:29:28.471Z,13.57
2022-11-23T09:31:56.625Z,14.37
2022-11-23T09:34:24.592Z,15.40
2022-11-23T09:36:53.928Z,12.17
2022-11-23T09:39:21.915Z,12.13
2022-11-23T09:42:14.838Z,13.77
2022-11-23T09:44:55.376Z,13.57
2022-11-23T09:47:42.074Z,17.30
2022-11-23T09:50:18.099Z,14.10
2022-11-23T09:52:53.737Z,15.43
2022-11-23T09:55:31.192Z,12.77
2022-11-23T09:58:03.470Z,9.93
2022-11-23T10:00:38.752Z,14.77
2022-11-23T10:03:06.683Z,15.73
2022-11-23T10:05:41.481Z,16.67
2022-11-23T10:08:20.993Z,13.23
2022-11-23T10:10:59.059Z,15.37
2022-11-23T10:13:35.973Z,19.17
2022-11-23T10:16:27.277Z,12.57
2022-11-23T10:19:03.680Z,16.07
2022-11-23T10:21:42.014Z,16.47
2022-11-23T10:24:20.380Z,16.30
2022-11-23T10:26:50.574Z,15.37
2022-11-23T10:29:26.462Z,13.33
2022-11-23T10:31:57.314Z,15.10
2022-11-23T10:34:39.366Z,17.97
2022-11-23T10:37:12.877Z,16.77
2022-11-23T10:39:42.498Z,13.83
2022-11-23T10:42:21.497Z,17.43
2022-11-23T10:44:51.821Z,13.13
2022-11-23T10:47:40.366Z,11.17
2022-11-23T10:50:29.942Z,16.13
2022-11-23T10:53:00.545Z,15.90
2022-11-23T10:55:33.458Z,12.93
2022-11-23T10:58:01.861Z,13.23
2022-11-23T11:00:31.453Z,13.47
2022-11-23T11:03:00.823Z,13.00
2022-11-23T11:06:07.042Z,12.00
2022-11-23T11:08:22.684Z,15.03
2022-11-23T11:10:59.530Z,12.93
2022-11-23T11:13:31.007Z,10.13
2022-11-23T11:16:01.491Z,11.33
2022-11-23T11:18:33.033Z,12.37
2022-11-23T11:21:05.104Z,8.63
2022-11-23T11:23:34.905Z,10.07
2022-11-23T11:26:11.335Z,15.03
2022-11-23T11:28:43.203Z,16.00
2022-11-23T11:31:36.531Z,11.20
2022-11-23T11:34:14.563Z,12.50
2022-11-23T11:36:49.778Z,11.10
2022-11-23T11:39:25.956Z,11.07
2022-11-23T11:41:57.255Z,18.97
2022-11-23T11:44:26.564Z,10.87
2022-11-23T11:47:01.592Z,11.30
2022-11-23T11:49:33.408Z,9.53
2022-11-23T11:52:08.836Z,10.63
2022-11-23T11:55:10.858Z,13.37
2022-11-23T11:57:46.750Z,11.50
2022-11-23T12:00:18.721Z,8.90
2022-11-23T12:02:58.581Z,11.20
2022-11-23T12:05:31.062Z,12.53
2022-11-23T12:08:07.792Z,11.87
2022-11-23T12:10:42.822Z,9.30
2022-11-23T12:13:15.435Z,11.97
2022-11-23T12:15:50.210Z,8.57
2022-11-23T12:18:51.571Z,7.47
2022-11-23T12:21:34.441Z,10.10
2022-11-23T12:24:14.424Z,9.17
2022-11-23T12:26:52.966Z,13.83
2022-11-23T12:29:37.714Z,8.83
2022-11-23T12:32:16.322Z,11.10
2022-11-23T12:35:03.291Z,17.47
2022-11-23T12:37:40.964Z,8.40
2022-11-23T12:40:30.887Z,5.57
2022-11-23T12:43:02.733Z,7.03
2022-11-23T12:45:48.113Z,10.50
2022-11-23T12:48:54.535Z,13.03
2022-11-23T12:51:31.615Z,10.90
2022-11-23T12:54:18.540Z,9.40
2022-11-23T12:56:58.779Z,6.33
2022-11-23T12:59:40.838Z,5.53
2022-11-23T13:02:20.381Z,9.77
2022-11-23T13:05:08.605Z,7.47
2022-11-23T13:08:10.328Z,6.83
2022-11-23T13:10:55.100Z,7.63
2022-11-23T13:13:49.273Z,9.03
2022-11-23T13:16:42.558Z,9.47
2022-11-23T13:19:24.773Z,6.40
2022-11-23T13:21:53.530Z,10.83
2022-11-23T13:24:32.487Z,7.13
2022-11-23T13:27:41.620Z,9.10
2022-11-23T13:30:22.552Z,6.77
2022-11-23T13:32:56.838Z,6.90
2022-11-23T13:35:53.582Z,7.97
2022-11-23T13:38:38.935Z,9.50
2022-11-23T13:41:40.444Z,8.27
2022-11-23T13:44:21.075Z,7.90
2022-11-23T13:47:05.515Z,8.37
2022-11-23T13:49:42.633Z,3.87
2022-11-23T13:52:31.727Z,7.70
2022-11-23T13:55:10.156Z,4.73
2022-11-23T13:57:39.320Z,7.00
2022-11-23T14:00:44.869Z,4.37
2022-11-23T14:03:49.001Z,5.40
2022-11-23T14:06:23.607Z,8.20
2022-11-23T14:08:59.608Z,5.70
2022-11-23T14:11:29.098Z,2.90
2022-11-23T14:14:02.532Z,7.10
2022-11-23T14:16:55.894Z,5.53
2022-11-23T14:19:33.435Z,7.93
2022-11-23T14:22:08.760Z,6.43
2022-11-23T14:25:06.820Z,9.67
2022-11-23T14:27:48.220Z,8.57
2022-11-23T14:30:32.995Z,6.33
2022-11-23T14:33:17.867Z,9.10
2022-11-23T14:35:50.219Z,7.30
2022-11-23T14:38:43.799Z,7.37
2022-11-23T14:41:17.767Z,7.40
2022-11-23T14:43:48.029Z,7.00
2022-11-23T14:46:19.300Z,6.63
2022-11-23T14:48:48.375Z,8.30
2022-11-23T14:51:19.758Z,6.23
2022-11-23T14:53:51.255Z,5.83
2022-11-23T14:56:35.402Z,3.70
2022-11-23T14:59:06.329Z,8.50
2022-11-23T15:01:35.499Z,8.20
2022-11-23T15:04:09.645Z,6.13
2022-11-23T15:06:45.545Z,6.53
2022-11-23T15:09:24.199Z,6.53
2022-11-23T15:12:06.057Z,6.80
2022-11-23T15:14:34.987Z,4.37
2022-11-23T15:17:18.844Z,3.20
2022-11-23T15:19:55.337Z,5.87
2022-11-23T15:22:24.581Z,5.53
2022-11-23T15:24:52.801Z,4.60
2022-11-23T15:27:28.345Z,4.17
2022-11-23T15:29:58.258Z,6.03
2022-11-23T15:32:33.963Z,4.40
2022-11-23T15:35:06.783Z,3.50
2022-11-23T15:37:39.674Z,6.77
2022-11-23T15:40:13.393Z,2.90
2022-11-23T15:42:43.997Z,5.43
2022-11-23T15:45:41.012Z,5.73
2022-11-23T15:48:13.859Z,3.10
2022-11-23T15:50:50.702Z,6.70
2022-11-23T15:53:19.020Z,5.30
2022-11-23T15:55:47.767Z,7.60
2022-11-23T15:58:19.751Z,5.20
2022-11-23T16:00:54.307Z,7.03
2022-11-23T16:03:30.001Z,6.00
2022-11-23T16:06:17.856Z,10.90
2022-11-23T16:08:46.723Z,7.50
2022-11-23T16:11:30.771Z,4.43
2022-11-23T16:14:18.321Z,5.87
2022-11-23T16:16:48.009Z,6.87
2022-11-23T16:19:26.057Z,6.13
2022-11-23T16:22:01.933Z,4.93
2022-11-23T16:24:32.876Z,6.03
2022-11-23T16:27:01.265Z,4.80
2022-11-23T16:29:38.247Z,5.27
2022-11-23T16:32:07.319Z,4.07
2022-11-23T16:34:35.843Z,8.63
2022-11-23T16:37:04.824Z,6.37
2022-11-23T16:39:32.806Z,6.93
2022-11-23T16:42:01.217Z,8.03
2022-11-23T16:44:34.280Z,12.03
2022-11-23T16:47:24.684Z,7.77
2022-11-23T16:49:53.573Z,7.60
2022-11-23T16:52:22.844Z,7.37
2022-11-23T16:54:52.658Z,9.20
2022-11-23T16:57:29.620Z,6.03
2022-11-23T17:00:00.404Z,7.23
2022-11-23T17:02:28.964Z,6.80
2022-11-23T17:04:57.105Z,6.30
2022-11-23T17:07:25.332Z,6.47
2022-11-23T17:09:53.415Z,8.43
2022-11-23T17:12:21.899Z,8.40
2022-11-23T17:14:51.436Z,8.43
2022-11-23T17:17:23.301Z,10.27
2022-11-23T17:19:52.252Z,11.60
2022-11-23T17:22:21.245Z,8.27
2022-11-23T17:24:50.268Z,8.33
2022-11-23T17:27:21.633Z,8.27
2022-11-23T17:29:52.753Z,8.03
2022-11-23T17:32:22.164Z,11.37
2022-11-23T17:34:50.096Z,6.67
2022-11-23T17:37:20.993Z,7.13
2022-11-23T17:40:04.348Z,10.00
2022-11-23T17:42:32.524Z,8.13
2022-11-23T17:45:00.713Z,8.07
2022-11-23T17:47:31.193Z,10.50
2022-11-23T17:49:59.639Z,7.60
2022-11-23T17:52:27.724Z,11.70
2022-11-23T17:54:55.813Z,10.00
2022-11-23T17:57:25.377Z,7.00
2022-11-23T17:59:53.657Z,10.37
2022-11-23T18:02:22.188Z,8.10
2022-11-23T18:04:51.638Z,9.87
2022-11-23T18:07:19.708Z,11.17
2022-11-23T18:09:51.372Z,11.57
2022-11-23T18:12:19.285Z,10.87
2022-11-23T18:14:47.408Z,8.20
2022-11-23T18:17:16.125Z,11.10
2022-11-23T18:19:44.068Z,8.90
2022-11-23T18:22:13.617Z,7.93
2022-11-23T18:24:41.671Z,10.70
2022-11-23T18:27:09.886Z,10.70
2022-11-23T18:29:40.287Z,13.27
2022-11-23T18:32:09.352Z,10.80
2022-11-23T18:34:37.495Z,8.93
2022-11-23T18:37:05.500Z,9.10
2022-11-23T18:39:35.269Z,14.70
2022-11-23T18:42:05.908Z,9.40
2022-11-23T18:44:34.524Z,10.37
2022-11-23T18:47:02.453Z,11.53
2022-11-23T18:49:30.783Z,7.77
2022-11-23T18:51:58.953Z,11.87
2022-11-23T18:54:26.883Z,9.17
2022-11-23T18:56:56.224Z,8.53
2022-11-23T19:02:15.557Z,16.63
2022-11-23T19:04:43.587Z,10.50
2022-11-23T19:07:23.701Z,9.83
2022-11-23T19:09:54.881Z,10.93
2022-11-23T19:12:25.006Z,11.73
2022-11-23T19:14:54.314Z,12.87
2022-11-23T19:17:24.275Z,9.70
2022-11-23T19:19:53.011Z,9.57
2022-11-23T19:22:24.172Z,18.20
2022-11-23T19:24:52.859Z,11.27
2022-11-23T19:27:21.376Z,19.03
2022-11-23T19:29:51.240Z,15.30
2022-11-23T19:32:23.041Z,13.07
2022-11-23T19:34:51.366Z,11.27
2022-11-23T19:37:19.307Z,16.83
2022-11-23T19:39:50.607Z,16.07
2022-11-23T19:42:18.561Z,13.10
2022-11-23T19:44:46.525Z,11.37
2022-11-23T19:47:22.380Z,13.23
2022-11-23T19:49:51.218Z,16.83
2022-11-23T19:52:19.204Z,12.90
2022-11-23T19:54:47.437Z,15.60
2022-11-23T19:57:15.596Z,13.50
2022-11-23T19:59:44.282Z,13.57
2022-11-23T20:02:18.982Z,15.63
2022-11-23T20:04:49.061Z,15.73
2022-11-23T20:07:17.306Z,17.40
2022-11-23T20:09:45.471Z,13.90
2022-11-23T20:12:13.475Z,15.27
2022-11-23T20:14:42.373Z,16.03
2022-11-23T20:17:13.960Z,14.00
2022-11-23T20:19:44.674Z,13.40
2022-11-23T20:22:14.324Z,14.77
2022-11-23T20:24:42.327Z,11.87
2022-11-23T20:27:12.896Z,13.37
2022-11-23T20:29:40.886Z,15.60
2022-11-23T20:32:08.938Z,19.67
2022-11-23T20:34:37.328Z,18.83
2022-11-23T20:37:27.192Z,16.27
2022-11-23T20:40:15.281Z,13.07
2022-11-23T20:42:43.571Z,15.53
2022-11-23T20:45:14.483Z,20.47
2022-11-23T20:47:42.620Z,22.00
2022-11-23T20:50:11.108Z,23.03
2022-11-23T20:52:40.638Z,15.60
2022-11-23T20:55:28.919Z,25.97
2022-11-23T20:57:57.214Z,22.37
2022-11-23T21:00:25.519Z,29.40
2022-11-23T21:02:55.770Z,22.03
2022-11-23T21:05:24.078Z,17.70
2022-11-23T21:08:22.323Z,23.83
2022-11-23T21:11:12.000Z,22.80
2022-11-23T21:13:57.607Z,21.27
2022-11-23T21:16:25.811Z,28.67
2022-11-23T21:18:53.853Z,18.93
2022-11-23T21:21:21.908Z,20.90
2022-11-23T21:23:54.112Z,23.40
2022-11-23T21:26:22.296Z,29.10
2022-11-23T21:28:50.320Z,19.40
2022-11-23T21:31:18.348Z,17.40
2022-11-23T21:33:49.511Z,21.93
2022-11-23T21:36:23.070Z,21.77
2022-11-23T21:39:03.328Z,19.97
2022-11-23T21:41:31.326Z,29.57
2022-11-23T21:44:00.863Z,26.87
2022-11-23T21:46:29.319Z,29.10
2022-11-23T21:48:58.796Z,30.53
2022-11-23T21:51:30.134Z,24.57
2022-11-23T21:54:02.299Z,24.70
2022-11-23T21:56:31.011Z,25.57
2022-11-23T21:59:00.096Z,25.07
2022-11-23T22:01:30.480Z,30.83
2022-11-23T22:04:01.397Z,28.17
2022-11-23T22:06:30.422Z,37.90
2022-11-23T22:09:00.732Z,31.00
2022-11-23T22:11:30.479Z,30.23
2022-11-23T22:13:59.946Z,25.03
2022-11-23T22:16:29.642Z,25.17
2022-11-23T22:18:59.077Z,26.03
2022-11-23T22:21:28.999Z,25.10
2022-11-23T22:23:56.977Z,23.60
2022-11-23T22:26:27.752Z,23.60
2022-11-23T22:28:57.017Z,22.63
2022-11-23T22:31:27.830Z,29.47
2022-11-23T22:33:55.917Z,24.60
2022-11-23T22:36:25.176Z,21.33
2022-11-23T22:39:01.054Z,24.60
2022-11-23T22:41:33.354Z,22.50
2022-11-23T22:44:01.271Z,24.10
2022-11-23T22:46:29.780Z,21.50
2022-11-23T22:48:59.682Z,19.40
2022-11-23T22:51:29.715Z,20.00
2022-11-23T22:53:59.508Z,15.93
2022-11-23T22:56:29.110Z,16.53
2022-11-23T22:58:58.577Z,16.27
2022-11-23T23:01:28.845Z,15.57
2022-11-23T23:03:58.393Z,14.33
2022-11-23T23:06:28.626Z,15.20
2022-11-23T23:08:58.203Z,13.50
2022-11-23T23:11:28.147Z,17.73
2022-11-23T23:13:58.070Z,14.83
2022-11-23T23:16:26.407Z,15.50
2022-11-23T23:18:57.700Z,8.93
2022-11-23T23:21:48.273Z,14.47
2022-11-23T23:24:16.210Z,12.77
2022-11-23T23:26:44.156Z,9.53
2022-11-23T23:29:13.506Z,7.80
2022-11-23T23:31:42.786Z,15.43
2022-11-23T23:34:10.888Z,9.67
2022-11-23T23:36:39.239Z,12.37
2022-11-23T23:39:07.733Z,14.30
2022-11-23T23:41:35.951Z,13.07
2022-11-23T23:44:04.151Z,18.90
2022-11-23T23:46:33.788Z,16.07
2022-11-23T23:49:02.813Z,12.77
2022-11-23T23:51:30.792Z,15.90
2022-11-23T23:53:59.046Z,21.53
2022-11-23T23:56:28.967Z,20.80
2022-11-23T23:58:58.163Z,25.97
